Time;durP1;ratioP1;P1;durP2;ratioP2;P2;SDS_P1;SDS_P2;PMS_P1;PMS_P2;Temp;Humidity;BMP_temperature;BMP_pressure;BME280_temperature;BME280_humidity;BME280_pressure;Samples;Min_cycle;Max_cycle;Signal;HPM_P1;HPM_P2
2021/11/13 00:00:39;;;;;;;4.20;1.25;;;4.20;99.90;;;;;;4357399;32;20131;-66
2021/11/13 00:03:06;;;;;;;3.90;1.87;;;4.20;99.90;;;;;;4364893;32;20071;-66
2021/11/13 00:05:32;;;;;;;2.20;1.73;;;4.20;99.90;;;;;;4369000;32;20117;-66
2021/11/13 00:07:58;;;;;;;1.23;1.12;;;4.20;99.90;;;;;;4362735;32;20559;-66
2021/11/13 00:10:27;;;;;;;11.82;3.70;;;4.30;99.90;;;;;;4363765;32;20490;-66
2021/11/13 00:12:54;;;;;;;1.58;1.48;;;4.30;99.90;;;;;;4361806;32;20424;-66
2021/11/13 00:15:21;;;;;;;4.57;2.20;;;4.40;99.90;;;;;;4362912;32;20087;-66
2021/11/13 00:17:48;;;;;;;5.10;1.98;;;4.30;99.90;;;;;;4361790;32;20185;-66
2021/11/13 00:20:13;;;;;;;3.92;2.22;;;4.30;99.90;;;;;;4361454;32;20087;-65
2021/11/13 00:22:39;;;;;;;3.83;2.08;;;4.20;99.90;;;;;;4365550;32;20496;-67
2021/11/13 00:25:05;;;;;;;28.48;1.83;;;4.20;99.90;;;;;;4365892;32;20066;-67
2021/11/13 00:27:31;;;;;;;6.37;2.12;;;4.20;99.90;;;;;;4366179;32;20087;-67
2021/11/13 00:29:56;;;;;;;2.30;1.48;;;4.30;99.90;;;;;;4361785;32;20098;-67
2021/11/13 00:32:22;;;;;;;6.35;2.72;;;4.30;99.90;;;;;;4364093;32;20135;-67
2021/11/13 00:34:47;;;;;;;8.85;2.62;;;4.20;99.90;;;;;;4362905;32;20067;-66
2021/11/13 00:37:13;;;;;;;5.62;2.67;;;4.20;99.90;;;;;;4365344;32;20147;-65
2021/11/13 00:39:38;;;;;;;10.30;1.73;;;4.20;99.90;;;;;;4364828;32;20572;-66
2021/11/13 00:42:04;;;;;;;4.15;1.58;;;4.20;99.90;;;;;;4363516;32;20489;-66
2021/11/13 00:44:30;;;;;;;7.40;2.60;;;4.30;99.90;;;;;;4363393;32;20095;-66
2021/11/13 00:46:55;;;;;;;11.75;2.58;;;4.30;99.90;;;;;;4363366;32;20498;-66
2021/11/13 00:49:21;;;;;;;17.83;3.12;;;4.20;99.90;;;;;;4364668;32;20545;-65
2021/11/13 00:51:46;;;;;;;8.32;2.62;;;4.10;99.90;;;;;;4359341;32;20066;-65
2021/11/13 00:54:12;;;;;;;2.15;1.65;;;4.10;99.90;;;;;;4364683;32;20091;-66
2021/11/13 00:56:38;;;;;;;5.60;2.35;;;4.20;99.90;;;;;;4363943;32;20369;-66
2021/11/13 00:59:04;;;;;;;5.32;2.45;;;4.00;99.90;;;;;;4363646;32;20584;-66
2021/11/13 01:01:29;;;;;;;2.25;1.92;;;4.10;99.90;;;;;;4363532;32;20071;-66
2021/11/13 01:03:56;;;;;;;5.50;2.47;;;4.10;99.90;;;;;;4362781;32;20126;-66
2021/11/13 01:06:22;;;;;;;0.57;0.57;;;4.10;99.90;;;;;;4367889;32;20082;-66
2021/11/13 01:08:48;;;;;;;6.10;2.60;;;4.00;99.90;;;;;;4365570;32;20071;-66
2021/11/13 01:11:15;;;;;;;3.20;1.48;;;4.10;99.90;;;;;;4368538;32;20146;-66
2021/11/13 01:13:41;;;;;;;3.20;1.17;;;4.10;99.90;;;;;;4369047;32;20086;-66
2021/11/13 01:16:07;;;;;;;5.43;2.17;;;4.10;99.90;;;;;;4368733;32;20094;-66
2021/11/13 01:18:33;;;;;;;1.90;1.67;;;4.10;99.90;;;;;;4364224;32;20094;-66
2021/11/13 01:20:58;;;;;;;4.20;1.92;;;4.00;99.90;;;;;;4366807;32;20066;-66
2021/11/13 01:23:24;;;;;;;2.60;1.30;;;4.10;99.90;;;;;;4363793;32;20088;-66
2021/11/13 01:25:50;;;;;;;7.50;3.40;;;4.10;99.90;;;;;;4364558;32;20104;-66
2021/11/13 01:28:15;;;;;;;13.45;1.58;;;4.20;99.90;;;;;;4364517;32;20079;-66
2021/11/13 01:30:41;;;;;;;6.80;2.08;;;4.20;99.90;;;;;;4366404;32;20067;-66
2021/11/13 01:33:07;;;;;;;4.53;2.25;;;4.20;99.90;;;;;;4365117;32;20078;-66
2021/11/13 01:35:32;;;;;;;4.97;2.40;;;4.20;99.90;;;;;;4369294;32;20526;-66
2021/11/13 01:37:58;;;;;;;2.08;1.83;;;4.30;99.90;;;;;;4363967;32;20100;-67
2021/11/13 01:40:25;;;;;;;4.87;1.92;;;4.40;99.90;;;;;;4366183;32;20086;-66
2021/11/13 01:42:54;;;;;;;3.00;1.87;;;4.30;99.90;;;;;;4367159;32;20414;-66
2021/11/13 01:45:19;;;;;;;4.30;1.90;;;4.30;99.90;;;;;;4366161;32;20091;-66
2021/11/13 01:47:46;;;;;;;5.97;2.87;;;4.30;99.90;;;;;;4363572;32;20094;-66
2021/11/13 01:50:18;;;;;;;2.58;1.80;;;4.40;99.90;;;;;;4365824;32;20071;-66
2021/11/13 01:52:45;;;;;;;12.13;2.40;;;4.30;99.90;;;;;;4365052;32;20810;-66
2021/11/13 01:55:12;;;;;;;3.62;1.77;;;4.30;99.90;;;;;;4366138;32;20121;-66
2021/11/13 01:57:46;;;;;;;1.65;1.42;;;4.40;99.90;;;;;;4371094;32;20085;-66
2021/11/13 02:00:33;;;;;;;4.85;2.50;;;4.40;99.90;;;;;;4364415;32;20083;-66
2021/11/13 02:03:00;;;;;;;4.95;1.60;;;4.40;99.90;;;;;;4362514;32;20074;-66
2021/11/13 02:05:26;;;;;;;2.60;1.90;;;4.30;99.90;;;;;;4364300;32;20058;-66
2021/11/13 02:07:52;;;;;;;2.75;1.80;;;4.40;99.90;;;;;;4362271;32;20071;-66
2021/11/13 02:10:18;;;;;;;3.50;1.42;;;4.30;99.90;;;;;;4368845;32;20106;-66
2021/11/13 02:12:44;;;;;;;1.00;1.00;;;4.20;99.90;;;;;;4371745;32;20078;-66
2021/11/13 02:15:11;;;;;;;19.02;2.60;;;4.10;99.90;;;;;;4366845;32;20067;-66
2021/11/13 02:17:36;;;;;;;2.12;1.62;;;4.10;99.90;;;;;;4363339;32;20543;-64
2021/11/13 02:20:23;;;;;;;3.00;1.15;;;4.20;99.90;;;;;;4365183;32;20071;-67
2021/11/13 02:22:49;;;;;;;4.75;2.17;;;4.20;99.90;;;;;;4355075;32;20155;-65
2021/11/13 02:25:18;;;;;;;5.93;2.75;;;4.10;99.90;;;;;;4362479;32;20102;-66
2021/11/13 02:27:43;;;;;;;1.50;1.40;;;4.20;99.90;;;;;;4359406;32;20154;-65
2021/11/13 02:30:10;;;;;;;4.78;2.12;;;4.20;99.90;;;;;;4366927;32;20078;-65
2021/11/13 02:32:36;;;;;;;3.28;1.17;;;4.30;99.90;;;;;;4368165;32;20066;-65
2021/11/13 02:35:02;;;;;;;2.60;1.83;;;4.30;99.90;;;;;;4359890;32;20439;-65
2021/11/13 02:37:28;;;;;;;2.25;1.25;;;4.30;99.90;;;;;;4363752;32;20129;-65
2021/11/13 02:39:54;;;;;;;8.40;3.33;;;4.20;99.90;;;;;;4363941;32;20120;-65
2021/11/13 02:42:22;;;;;;;3.67;2.05;;;4.20;99.90;;;;;;4363056;32;20447;-65
2021/11/13 02:44:50;;;;;;;1.75;1.20;;;4.10;99.90;;;;;;4362419;32;20531;-65
2021/11/13 02:47:16;;;;;;;4.22;2.30;;;4.10;99.90;;;;;;4372381;32;20094;-65
2021/11/13 02:49:43;;;;;;;4.47;2.60;;;4.20;99.90;;;;;;4363237;32;20079;-65
2021/11/13 02:52:08;;;;;;;1.48;1.37;;;4.20;99.90;;;;;;4368022;32;20078;-65
2021/11/13 02:54:34;;;;;;;1.30;1.20;;;4.20;99.90;;;;;;4360463;32;20233;-65
2021/11/13 02:56:59;;;;;;;1.23;1.12;;;4.20;99.90;;;;;;4361077;32;20091;-65
2021/11/13 02:59:24;;;;;;;2.37;1.95;;;4.30;99.90;;;;;;4364205;32;20075;-65
2021/11/13 03:01:50;;;;;;;3.92;1.58;;;4.30;99.90;;;;;;4361448;32;20415;-65
2021/11/13 03:04:17;;;;;;;3.22;1.50;;;4.40;99.90;;;;;;4359735;32;20129;-66
2021/11/13 03:06:43;;;;;;;0.70;0.70;;;4.30;99.90;;;;;;4359083;32;20126;-65
2021/11/13 03:09:09;;;;;;;3.45;1.90;;;4.30;99.90;;;;;;4360644;32;20072;-65
2021/11/13 03:11:34;;;;;;;1.23;1.12;;;4.40;99.90;;;;;;4363757;32;20087;-65
2021/11/13 03:13:59;;;;;;;8.40;2.12;;;4.40;99.90;;;;;;4362034;32;20243;-65
2021/11/13 03:16:25;;;;;;;1.42;1.33;;;4.30;99.90;;;;;;4358863;32;20074;-65
2021/11/13 03:18:50;;;;;;;1.50;1.40;;;4.30;99.90;;;;;;4361032;32;20087;-65
2021/11/13 03:21:16;;;;;;;2.25;1.48;;;4.30;99.90;;;;;;4362333;32;20066;-65
2021/11/13 03:23:44;;;;;;;7.43;2.53;;;4.20;99.90;;;;;;4368262;32;20075;-66
2021/11/13 03:26:18;;;;;;;8.25;1.98;;;4.30;99.90;;;;;;4361981;32;20086;-66
2021/11/13 03:28:48;;;;;;;8.10;2.30;;;4.40;99.90;;;;;;4361010;32;20126;-66
2021/11/13 03:31:14;;;;;;;3.05;1.85;;;4.40;99.90;;;;;;4363759;32;20075;-66
2021/11/13 03:33:40;;;;;;;2.90;1.48;;;4.30;99.90;;;;;;4362283;32;20119;-66
2021/11/13 03:36:07;;;;;;;4.68;2.33;;;4.20;99.90;;;;;;4361257;32;20520;-66
2021/11/13 03:38:34;;;;;;;12.52;2.20;;;4.20;99.90;;;;;;4366006;32;20203;-66
2021/11/13 03:41:00;;;;;;;4.50;1.35;;;4.20;99.90;;;;;;4366819;32;20067;-66
2021/11/13 03:43:26;;;;;;;3.72;1.80;;;4.20;99.90;;;;;;4360120;32;20083;-66
2021/11/13 03:45:52;;;;;;;3.05;2.20;;;4.20;99.90;;;;;;4362907;32;20079;-66
2021/11/13 03:48:18;;;;;;;1.00;0.95;;;4.20;99.90;;;;;;4365523;32;20150;-66
2021/11/13 03:50:45;;;;;;;2.62;1.48;;;4.20;99.90;;;;;;4361402;32;20079;-66
2021/11/13 03:53:11;;;;;;;4.95;2.37;;;4.10;99.90;;;;;;4362248;32;20074;-66
2021/11/13 03:55:36;;;;;;;4.87;2.15;;;4.20;99.90;;;;;;4360792;32;20498;-66
2021/11/13 03:58:03;;;;;;;3.00;1.80;;;4.20;99.90;;;;;;4362542;32;20143;-66
2021/11/13 04:00:29;;;;;;;1.62;1.52;;;4.20;99.90;;;;;;4359187;32;20135;-66
2021/11/13 04:02:56;;;;;;;2.67;1.30;;;4.30;99.90;;;;;;4358715;32;20071;-66
2021/11/13 04:05:21;;;;;;;5.93;1.37;;;4.40;99.90;;;;;;4358384;32;20122;-66
2021/11/13 04:07:48;;;;;;;1.85;1.75;;;4.20;99.90;;;;;;4359444;32;20106;-66
2021/11/13 04:10:14;;;;;;;4.28;1.85;;;4.20;99.90;;;;;;4360441;32;20107;-66
2021/11/13 04:12:42;;;;;;;1.70;1.55;;;4.10;99.90;;;;;;4367689;32;20076;-66
2021/11/13 04:15:09;;;;;;;7.47;2.37;;;4.10;99.90;;;;;;4363511;32;20070;-66
2021/11/13 04:17:34;;;;;;;13.38;2.15;;;4.10;99.90;;;;;;4369538;32;20102;-66
2021/11/13 04:20:01;;;;;;;2.30;1.98;;;4.20;99.90;;;;;;4364886;32;20078;-66
2021/11/13 04:22:26;;;;;;;3.80;1.83;;;4.30;99.90;;;;;;4363063;32;20087;-66
2021/11/13 04:24:52;;;;;;;5.80;2.35;;;4.20;99.90;;;;;;4366068;32;20098;-66
2021/11/13 04:27:18;;;;;;;2.22;1.23;;;4.30;99.90;;;;;;4366370;32;20074;-66
2021/11/13 04:29:45;;;;;;;3.20;2.35;;;4.30;99.90;;;;;;4369006;32;20066;-66
2021/11/13 04:32:11;;;;;;;1.58;1.40;;;4.20;99.90;;;;;;4362912;32;81997;-66
2021/11/13 04:35:03;;;;;;;1.62;1.45;;;4.20;99.90;;;;;;4362844;32;20543;-65
2021/11/13 04:37:22;;;;;;;3.97;1.77;;;4.20;99.90;;;;;;4364955;32;20095;-65
2021/11/13 04:39:49;;;;;;;2.60;1.87;;;4.20;99.90;;;;;;4362943;32;20066;-65
2021/11/13 04:42:16;;;;;;;1.83;1.15;;;4.20;99.90;;;;;;4364679;32;20234;-65
2021/11/13 04:44:42;;;;;;;1.45;1.35;;;4.10;99.90;;;;;;4364944;32;20133;-65
2021/11/13 04:47:08;;;;;;;1.25;1.20;;;4.10;99.90;;;;;;4367271;32;20087;-65
2021/11/13 04:49:34;;;;;;;2.30;1.95;;;4.00;99.90;;;;;;4361939;32;20115;-65
2021/11/13 04:52:02;;;;;;;0.80;0.80;;;4.10;99.90;;;;;;4359916;32;20152;-65
2021/11/13 04:54:27;;;;;;;2.30;1.98;;;4.10;99.90;;;;;;4368037;32;20539;-65
2021/11/13 04:56:53;;;;;;;5.93;1.75;;;4.00;99.90;;;;;;4364279;32;20122;-65
2021/11/13 04:59:19;;;;;;;2.42;1.95;;;4.00;99.90;;;;;;4362338;32;20067;-65
2021/11/13 05:01:45;;;;;;;1.60;1.08;;;3.90;99.90;;;;;;4365991;32;20087;-65
2021/11/13 05:04:10;;;;;;;1.50;1.40;;;4.00;99.90;;;;;;4366832;32;20070;-65
2021/11/13 05:06:36;;;;;;;1.48;1.37;;;4.10;99.90;;;;;;4365084;32;20075;-66
2021/11/13 05:09:02;;;;;;;2.78;1.85;;;4.10;99.90;;;;;;4361548;32;20529;-65
2021/11/13 05:11:27;;;;;;;1.92;1.15;;;4.20;99.90;;;;;;4359882;32;20072;-66
2021/11/13 05:13:53;;;;;;;4.70;1.75;;;4.10;99.90;;;;;;4363209;32;20087;-65
2021/11/13 05:16:19;;;;;;;2.30;1.60;;;4.20;99.90;;;;;;4365717;32;20110;-66
2021/11/13 05:18:44;;;;;;;1.98;1.60;;;4.20;99.90;;;;;;4363907;32;20405;-66
2021/11/13 05:21:10;;;;;;;1.10;1.00;;;4.10;99.90;;;;;;4362313;32;20098;-65
2021/11/13 05:23:36;;;;;;;4.60;1.90;;;4.10;99.90;;;;;;4363858;32;20073;-64
2021/11/13 05:26:02;;;;;;;2.80;1.77;;;4.10;99.90;;;;;;4361934;32;20083;-65
2021/11/13 05:28:29;;;;;;;4.12;2.12;;;4.10;99.90;;;;;;4361170;32;20092;-65
2021/11/13 05:30:56;;;;;;;2.75;1.73;;;4.10;99.90;;;;;;4361621;32;20078;-65
2021/11/13 05:33:21;;;;;;;3.62;1.37;;;4.20;99.90;;;;;;4361146;32;20099;-65
2021/11/13 05:35:47;;;;;;;39.72;2.35;;;4.20;99.90;;;;;;4362157;32;20098;-65
2021/11/13 05:38:12;;;;;;;4.55;2.28;;;4.20;99.90;;;;;;4372485;32;20389;-65
2021/11/13 05:40:38;;;;;;;2.97;1.77;;;4.10;99.90;;;;;;4363919;32;20070;-65
2021/11/13 05:43:03;;;;;;;1.08;1.08;;;4.20;99.90;;;;;;4366874;32;20146;-65
2021/11/13 05:45:29;;;;;;;1.75;1.35;;;4.20;99.90;;;;;;4366528;32;20080;-65
2021/11/13 05:47:55;;;;;;;3.03;2.30;;;4.20;99.90;;;;;;4362216;32;20087;-65
2021/11/13 05:50:21;;;;;;;2.67;1.52;;;4.20;99.90;;;;;;4361865;32;20109;-65
2021/11/13 05:52:49;;;;;;;1.98;1.45;;;4.20;99.90;;;;;;4366694;32;20561;-65
2021/11/13 05:55:16;;;;;;;3.67;1.73;;;4.20;99.90;;;;;;4365037;32;20095;-65
2021/11/13 05:57:41;;;;;;;3.78;1.52;;;4.10;99.90;;;;;;4365652;32;20090;-65
2021/11/13 06:00:11;;;;;;;3.20;2.80;;;4.20;99.90;;;;;;4360482;32;20492;-65
2021/11/13 06:02:36;;;;;;;20.73;3.60;;;4.20;99.90;;;;;;4364305;32;20062;-66
2021/11/13 06:05:02;;;;;;;1.70;1.23;;;4.20;99.90;;;;;;4364188;32;20063;-65
2021/11/13 06:07:28;;;;;;;2.00;1.27;;;4.20;99.90;;;;;;4367297;32;20425;-65
2021/11/13 06:09:53;;;;;;;6.55;1.15;;;4.20;99.90;;;;;;4364155;32;20082;-65
2021/11/13 06:12:19;;;;;;;8.80;2.60;;;4.30;99.90;;;;;;4362958;32;20508;-65
2021/11/13 06:14:44;;;;;;;3.15;1.65;;;4.30;99.90;;;;;;4364920;32;20127;-66
2021/11/13 06:17:10;;;;;;;1.77;1.12;;;4.30;99.90;;;;;;4364012;32;20071;-65
2021/11/13 06:19:36;;;;;;;1.50;1.40;;;4.40;99.90;;;;;;4362725;32;20075;-65
2021/11/13 06:22:02;;;;;;;14.18;2.55;;;4.40;99.90;;;;;;4358317;32;20598;-65
2021/11/13 06:24:27;;;;;;;0.85;0.85;;;4.40;99.90;;;;;;4362041;32;20094;-65
2021/11/13 06:26:54;;;;;;;3.65;1.48;;;4.40;99.90;;;;;;4366689;32;20070;-65
2021/11/13 06:29:19;;;;;;;1.02;1.00;;;4.50;99.90;;;;;;4361849;32;20087;-65
2021/11/13 06:31:45;;;;;;;16.50;2.65;;;4.40;99.90;;;;;;4367112;32;20082;-65
2021/11/13 06:34:10;;;;;;;2.45;2.00;;;4.40;99.90;;;;;;4362355;32;20083;-66
2021/11/13 06:36:36;;;;;;;1.65;1.50;;;4.40;99.90;;;;;;4359799;32;20082;-65
2021/11/13 06:39:02;;;;;;;3.55;1.83;;;4.50;99.90;;;;;;4364722;32;20108;-65
2021/11/13 06:41:30;;;;;;;1.90;1.17;;;4.50;99.90;;;;;;4369814;32;20090;-65
2021/11/13 06:43:56;;;;;;;1.73;1.52;;;4.50;99.90;;;;;;4367578;32;20079;-65
2021/11/13 06:46:22;;;;;;;2.90;0.85;;;4.50;99.90;;;;;;4365086;32;20196;-65
2021/11/13 06:48:48;;;;;;;5.10;1.05;;;4.50;99.90;;;;;;4363359;32;20070;-65
2021/11/13 06:51:13;;;;;;;1.48;1.15;;;4.50;99.90;;;;;;4365629;32;20579;-65
2021/11/13 06:53:39;;;;;;;11.05;1.77;;;4.40;99.90;;;;;;4368221;32;20067;-65
2021/11/13 06:56:05;;;;;;;8.57;2.15;;;4.40;99.90;;;;;;4361431;32;20075;-66
2021/11/13 06:58:30;;;;;;;11.18;2.05;;;4.40;99.90;;;;;;4367878;32;20098;-67
2021/11/13 07:00:56;;;;;;;1.20;1.10;;;4.40;99.90;;;;;;4368793;32;20113;-66
2021/11/13 07:03:21;;;;;;;3.37;1.92;;;4.50;99.90;;;;;;4363548;32;20078;-66
2021/11/13 07:05:47;;;;;;;4.87;1.73;;;4.40;99.90;;;;;;4360890;32;20090;-67
2021/11/13 07:08:13;;;;;;;2.28;1.77;;;4.50;99.90;;;;;;4360622;32;20075;-67
2021/11/13 07:10:39;;;;;;;4.70;2.30;;;4.60;99.90;;;;;;4366398;32;20074;-66
2021/11/13 07:13:05;;;;;;;2.78;1.48;;;4.60;99.90;;;;;;4366716;32;20241;-66
2021/11/13 07:15:31;;;;;;;2.83;1.42;;;4.60;99.90;;;;;;4362872;32;20150;-66
2021/11/13 07:18:01;;;;;;;26.87;1.65;;;4.50;99.90;;;;;;4369538;32;20109;-66
2021/11/13 07:20:28;;;;;;;1.00;1.00;;;4.60;99.90;;;;;;4365030;32;20070;-66
2021/11/13 07:22:55;;;;;;;1.42;0.93;;;4.60;99.90;;;;;;4365560;32;20086;-66
2021/11/13 07:25:22;;;;;;;1.70;1.60;;;4.60;99.90;;;;;;4365600;32;20132;-66
2021/11/13 07:27:48;;;;;;;10.35;2.55;;;4.60;99.90;;;;;;4361628;32;20145;-66
2021/11/13 07:30:17;;;;;;;5.07;2.17;;;4.50;99.90;;;;;;4364922;32;20338;-67
2021/11/13 07:32:43;;;;;;;1.33;1.23;;;4.40;99.90;;;;;;4363204;32;20075;-67
2021/11/13 07:35:09;;;;;;;1.12;1.10;;;4.50;99.90;;;;;;4366220;32;20131;-66
2021/11/13 07:37:34;;;;;;;5.70;1.85;;;4.50;99.90;;;;;;4366789;32;20078;-66
2021/11/13 07:40:00;;;;;;;1.35;1.17;;;4.60;99.90;;;;;;4369666;32;20078;-66
2021/11/13 07:42:25;;;;;;;0.98;0.98;;;4.70;99.90;;;;;;4359285;32;20429;-67
2021/11/13 07:44:51;;;;;;;0.80;0.80;;;4.60;99.90;;;;;;4364958;32;20062;-66
2021/11/13 07:47:17;;;;;;;5.00;1.48;;;4.70;99.90;;;;;;4361087;32;20121;-67
2021/11/13 07:49:42;;;;;;;1.60;1.37;;;4.80;99.90;;;;;;4363662;32;20067;-67
2021/11/13 07:52:08;;;;;;;3.05;1.70;;;4.90;99.90;;;;;;4362993;32;20078;-67
2021/11/13 07:54:34;;;;;;;1.27;1.17;;;4.90;99.90;;;;;;4365574;32;20079;-66
2021/11/13 07:57:00;;;;;;;1.12;1.02;;;4.80;99.90;;;;;;4365162;32;20083;-68
2021/11/13 07:59:26;;;;;;;1.75;1.55;;;4.70;99.90;;;;;;4362331;32;20079;-66
2021/11/13 08:01:51;;;;;;;0.80;0.80;;;4.80;99.90;;;;;;4365390;32;20415;-66
2021/11/13 08:04:17;;;;;;;1.67;1.15;;;4.80;99.90;;;;;;4364653;32;20067;-67
2021/11/13 08:06:42;;;;;;;5.10;1.80;;;4.90;99.90;;;;;;4362206;32;20075;-67
2021/11/13 08:09:08;;;;;;;1.23;1.12;;;4.90;99.90;;;;;;4360013;32;20095;-67
2021/11/13 08:11:34;;;;;;;0.85;0.85;;;4.90;99.90;;;;;;4367973;32;20456;-67
2021/11/13 08:13:59;;;;;;;2.95;1.33;;;4.90;99.90;;;;;;4360426;32;20530;-67
2021/11/13 08:16:25;;;;;;;1.40;1.30;;;4.90;99.90;;;;;;4367092;32;20170;-66
2021/11/13 08:18:51;;;;;;;0.98;0.93;;;4.90;99.90;;;;;;4359774;32;20063;-66
2021/11/13 08:21:16;;;;;;;9.90;1.73;;;5.00;99.90;;;;;;4370603;32;20082;-67
2021/11/13 08:23:42;;;;;;;1.90;1.73;;;5.10;99.90;;;;;;4364323;32;20131;-66
2021/11/13 08:26:09;;;;;;;0.77;0.62;;;5.00;99.90;;;;;;4363593;32;20532;-66
2021/11/13 08:28:34;;;;;;;0.80;0.80;;;5.00;99.90;;;;;;4362453;32;20130;-67
2021/11/13 08:31:00;;;;;;;5.05;1.85;;;5.00;99.90;;;;;;4366351;32;20500;-67
2021/11/13 08:33:28;;;;;;;5.43;1.40;;;5.00;99.90;;;;;;4361067;32;20107;-66
2021/11/13 08:35:54;;;;;;;1.23;1.12;;;5.10;99.90;;;;;;4365631;32;20075;-66
2021/11/13 08:38:21;;;;;;;2.97;1.77;;;5.20;99.90;;;;;;4369842;32;20160;-66
2021/11/13 08:40:48;;;;;;;1.00;0.77;;;5.20;99.90;;;;;;4365167;32;20090;-66
2021/11/13 08:43:14;;;;;;;1.25;1.02;;;5.30;99.90;;;;;;4358263;32;20504;-66
2021/11/13 08:45:40;;;;;;;0.62;0.62;;;5.20;99.90;;;;;;4362334;32;20802;-66
2021/11/13 08:48:06;;;;;;;1.70;1.25;;;5.20;99.90;;;;;;4362673;32;20087;-67
2021/11/13 08:50:32;;;;;;;1.42;1.08;;;5.30;99.90;;;;;;4367419;32;20135;-66
2021/11/13 08:53:01;;;;;;;5.05;2.15;;;5.40;99.90;;;;;;4366941;32;20126;-66
2021/11/13 08:55:29;;;;;;;3.33;1.55;;;5.50;99.90;;;;;;4360253;32;20127;-66
2021/11/13 08:57:55;;;;;;;9.57;1.23;;;5.40;99.90;;;;;;4361724;32;20071;-66
2021/11/13 09:00:44;;;;;;;2.95;1.62;;;5.50;99.90;;;;;;4362235;32;20512;-66
2021/11/13 09:03:16;;;;;;;0.55;0.55;;;5.40;99.90;;;;;;4358725;32;20071;-66
2021/11/13 09:05:42;;;;;;;5.72;1.90;;;5.30;99.90;;;;;;4363503;32;20134;-66
2021/11/13 09:08:07;;;;;;;1.17;1.08;;;5.40;99.90;;;;;;4365246;32;20082;-66
2021/11/13 09:10:34;;;;;;;1.27;1.05;;;5.50;99.90;;;;;;4369212;32;20488;-66
2021/11/13 09:13:00;;;;;;;1.27;1.08;;;5.50;99.90;;;;;;4364698;32;20185;-66
2021/11/13 09:15:29;;;;;;;1.30;1.10;;;5.50;99.90;;;;;;4364416;32;20485;-66
2021/11/13 09:17:55;;;;;;;1.73;1.20;;;5.60;99.90;;;;;;4365387;32;20159;-66
2021/11/13 09:20:23;;;;;;;1.58;1.23;;;5.70;99.90;;;;;;4367709;32;20079;-66
2021/11/13 09:22:48;;;;;;;1.58;1.33;;;5.60;99.90;;;;;;4367353;32;20083;-66
2021/11/13 09:25:14;;;;;;;0.98;0.90;;;5.70;99.90;;;;;;4367204;32;20074;-66
2021/11/13 09:27:43;;;;;;;1.10;1.05;;;5.80;99.90;;;;;;4367346;32;20079;-67
2021/11/13 09:30:14;;;;;;;12.77;2.22;;;5.90;99.90;;;;;;4366887;32;20086;-66
2021/11/13 09:32:43;;;;;;;1.17;1.05;;;6.00;99.90;;;;;;4369972;32;20063;-66
2021/11/13 09:35:10;;;;;;;2.60;1.23;;;6.00;99.90;;;;;;4369167;32;20578;-66
2021/11/13 09:37:35;;;;;;;1.02;0.90;;;6.00;99.90;;;;;;4349452;32;20119;-66
2021/11/13 09:40:01;;;;;;;3.00;1.52;;;6.00;99.90;;;;;;4367122;32;20083;-66
2021/11/13 09:42:26;;;;;;;1.67;1.20;;;6.00;99.90;;;;;;4360500;32;20078;-66
2021/11/13 09:44:52;;;;;;;1.10;0.73;;;6.00;99.90;;;;;;4361977;32;20462;-66
2021/11/13 09:47:18;;;;;;;0.88;0.88;;;6.10;99.90;;;;;;4364172;32;20083;-67
2021/11/13 09:49:44;;;;;;;1.85;1.50;;;6.10;99.90;;;;;;4364720;32;20567;-66
2021/11/13 09:52:12;;;;;;;1.52;1.42;;;6.30;99.90;;;;;;4365605;32;20075;-66
2021/11/13 09:54:39;;;;;;;7.00;1.52;;;6.30;99.90;;;;;;4362823;32;20455;-66
2021/11/13 09:57:05;;;;;;;1.90;1.27;;;6.30;99.90;;;;;;4365226;32;20148;-66
2021/11/13 09:59:30;;;;;;;1.85;1.17;;;6.30;99.90;;;;;;4364392;32;20118;-66
2021/11/13 10:01:56;;;;;;;1.27;0.90;;;6.30;99.90;;;;;;4362492;32;20133;-66
2021/11/13 10:04:23;;;;;;;2.08;1.05;;;6.20;99.90;;;;;;4368617;32;20128;-67
2021/11/13 10:06:50;;;;;;;0.80;0.80;;;6.30;99.90;;;;;;4367595;32;20474;-66
2021/11/13 10:09:16;;;;;;;1.20;0.75;;;6.30;99.90;;;;;;4362050;32;20106;-67
2021/11/13 10:11:45;;;;;;;2.65;1.20;;;6.30;99.90;;;;;;4364366;32;20426;-66
2021/11/13 10:14:10;;;;;;;1.95;1.48;;;6.40;99.90;;;;;;4366094;32;20541;-66
2021/11/13 10:16:40;;;;;;;2.22;1.08;;;6.50;99.90;;;;;;4365176;32;20071;-66
2021/11/13 10:19:10;;;;;;;1.90;0.85;;;6.60;99.90;;;;;;4361131;32;20090;-66
2021/11/13 10:21:39;;;;;;;8.10;1.58;;;6.70;99.90;;;;;;4364720;32;20175;-66
2021/11/13 10:24:14;;;;;;;0.70;0.65;;;6.60;99.90;;;;;;4361637;32;20067;-66
2021/11/13 10:26:44;;;;;;;2.37;1.37;;;6.60;99.90;;;;;;4361372;32;20079;-66
2021/11/13 10:29:14;;;;;;;2.67;1.15;;;6.60;99.90;;;;;;4364111;32;20613;-66
2021/11/13 10:31:42;;;;;;;1.23;0.85;;;6.60;99.90;;;;;;4368431;32;20070;-66
2021/11/13 10:34:11;;;;;;;0.85;0.85;;;6.60;99.90;;;;;;4364670;32;20070;-66
2021/11/13 10:36:42;;;;;;;1.65;1.35;;;6.70;99.90;;;;;;4363106;32;20130;-66
2021/11/13 10:39:14;;;;;;;3.92;1.80;;;6.80;99.90;;;;;;4361609;32;20063;-66
2021/11/13 10:41:53;;;;;;;0.90;0.85;;;6.70;99.90;;;;;;4359701;32;20083;-66
2021/11/13 10:44:25;;;;;;;2.45;1.20;;;6.70;99.90;;;;;;4359809;32;20087;-66
2021/11/13 10:46:51;;;;;;;2.17;1.40;;;6.80;99.90;;;;;;4366240;32;20114;-66
2021/11/13 10:49:16;;;;;;;0.85;0.68;;;6.90;99.90;;;;;;4364215;32;20075;-66
2021/11/13 10:51:53;;;;;;;1.75;1.23;;;7.00;99.90;;;;;;4365920;32;20078;-67
2021/11/13 10:54:21;;;;;;;0.80;0.80;;;6.90;99.90;;;;;;4368597;32;20070;-66
2021/11/13 10:56:50;;;;;;;0.85;0.82;;;7.10;99.90;;;;;;4365113;32;20098;-66
2021/11/13 10:59:15;;;;;;;1.23;1.15;;;7.20;99.90;;;;;;4364669;32;20128;-66
2021/11/13 11:01:48;;;;;;;1.37;1.02;;;7.30;99.90;;;;;;4363801;32;20508;-66
2021/11/13 11:04:16;;;;;;;1.23;0.98;;;7.40;99.90;;;;;;4366228;32;20079;-66
2021/11/13 11:06:47;;;;;;;1.05;0.75;;;7.30;99.90;;;;;;4367717;32;20139;-66
2021/11/13 11:09:24;;;;;;;1.30;1.23;;;7.20;99.90;;;;;;4359595;32;20092;-66
2021/11/13 11:11:51;;;;;;;2.40;1.15;;;7.20;99.90;;;;;;4365921;32;20171;-67
2021/11/13 11:14:20;;;;;;;0.52;0.52;;;7.50;99.90;;;;;;4366983;32;20165;-67
2021/11/13 11:16:51;;;;;;;1.75;0.98;;;7.50;99.90;;;;;;4361377;32;20409;-67
2021/11/13 11:19:20;;;;;;;0.70;0.70;;;7.50;99.90;;;;;;4362073;32;20062;-66
2021/11/13 11:21:54;;;;;;;2.75;1.15;;;7.60;99.90;;;;;;4361792;32;20500;-66
2021/11/13 11:24:31;;;;;;;0.68;0.65;;;7.70;99.90;;;;;;4366932;32;20552;-66
2021/11/13 11:27:02;;;;;;;1.35;0.93;;;7.90;99.90;;;;;;4360967;32;20174;-66
2021/11/13 11:29:28;;;;;;;;;;;7.90;99.90;;;;;;4365560;32;20418;-66
2021/11/13 11:31:59;;;;;;;2.53;1.48;;;7.80;99.90;;;;;;4362955;32;20005;-66
2021/11/13 11:34:32;;;;;;;1.20;0.77;;;8.00;99.90;;;;;;4363553;32;20067;-66
2021/11/13 11:37:06;;;;;;;1.75;1.25;;;7.90;99.90;;;;;;4361502;32;20063;-66
2021/11/13 11:39:31;;;;;;;1.83;1.25;;;7.90;99.90;;;;;;4361278;32;20530;-66
2021/11/13 11:41:57;;;;;;;1.87;1.15;;;7.80;99.90;;;;;;4359169;32;20086;-66
2021/11/13 11:44:23;;;;;;;2.22;1.08;;;7.80;99.90;;;;;;4363248;32;20063;-66
2021/11/13 11:46:49;;;;;;;1.83;1.02;;;8.00;99.90;;;;;;4368198;32;20107;-66
2021/11/13 11:49:16;;;;;;;0.70;0.68;;;8.10;99.90;;;;;;4359829;32;20461;-66
2021/11/13 11:51:43;;;;;;;1.10;0.85;;;8.40;99.90;;;;;;4361608;32;20057;-67
2021/11/13 11:54:09;;;;;;;2.92;1.77;;;8.70;99.90;;;;;;4366210;32;20399;-66
2021/11/13 11:56:35;;;;;;;1.02;0.93;;;8.70;99.90;;;;;;4363046;32;20071;-67
2021/11/13 11:59:03;;;;;;;2.05;1.05;;;8.70;99.90;;;;;;4363613;32;20134;-66
2021/11/13 12:01:31;;;;;;;1.23;1.12;;;8.90;99.90;;;;;;4359866;32;20079;-67
2021/11/13 12:04:15;;;;;;;2.28;1.12;;;9.00;99.90;;;;;;4363824;32;20142;-67
2021/11/13 12:06:44;;;;;;;2.85;1.12;;;9.10;99.90;;;;;;4361919;32;20075;-66
2021/11/13 12:09:10;;;;;;;0.50;0.50;;;9.40;99.90;;;;;;4360129;32;20067;-67
2021/11/13 12:11:36;;;;;;;0.73;0.73;;;9.90;99.90;;;;;;4359539;32;20098;-68
2021/11/13 12:14:27;;;;;;;0.93;0.93;;;10.00;99.90;;;;;;4361457;32;20083;-66
2021/11/13 12:16:53;;;;;;;1.80;1.15;;;10.20;99.90;;;;;;4354944;32;20222;-66
2021/11/13 12:19:18;;;;;;;8.10;1.95;;;10.40;99.90;;;;;;4364954;32;20094;-67
2021/11/13 12:21:59;;;;;;;0.70;0.70;;;10.60;99.90;;;;;;4361256;32;20270;-66
2021/11/13 12:24:25;;;;;;;0.77;0.77;;;10.50;99.90;;;;;;4361944;32;20082;-66
2021/11/13 12:26:59;;;;;;;8.18;1.40;;;10.80;99.90;;;;;;4362058;32;20337;-66
2021/11/13 12:29:25;;;;;;;1.90;0.82;;;10.90;99.90;;;;;;4360068;32;20474;-66
2021/11/13 12:31:54;;;;;;;4.18;1.37;;;11.20;99.90;;;;;;4362514;32;20079;-67
2021/11/13 12:34:24;;;;;;;2.45;1.25;;;11.50;99.90;;;;;;4364148;32;20450;-69
2021/11/13 12:36:54;;;;;;;1.27;1.00;;;11.40;99.90;;;;;;4365392;32;20086;-67
2021/11/13 12:39:21;;;;;;;0.88;0.70;;;11.40;99.90;;;;;;4369287;32;20092;-67
2021/11/13 12:41:58;;;;;;;1.15;1.12;;;11.50;99.90;;;;;;4367218;32;20091;-66
2021/11/13 12:44:44;;;;;;;2.15;0.98;;;11.30;99.90;;;;;;4368809;32;21700;-67
2021/11/13 12:47:20;;;;;;;1.87;1.20;;;11.30;99.90;;;;;;4360654;32;20100;-67
2021/11/13 12:49:52;;;;;;;4.82;1.17;;;11.10;99.90;;;;;;4367486;32;20394;-68
2021/11/13 12:52:22;;;;;;;3.20;1.48;;;11.10;99.90;;;;;;4364971;32;20063;-66
2021/11/13 12:54:50;;;;;;;1.02;0.98;;;11.10;99.90;;;;;;4368716;32;20067;-67